Time,TemperatureF,DewpointF,PressureIn,WindDirection,WindDirectionDegrees,WindSpeedMPH,WindSpeedGustMPH,Humidity,HourlyPrecipIn,Conditions,Clouds,dailyrainin,SoftwareType,DateUTC
2013-07-03 00:01:00,70.4,66.0,30.02,SSW,209,0.0,0.0,85,0.00,,,0.00,weatherlink.com 1.10,2013-07-03 05:01:00,
2013-07-03 00:16:00,70.0,65.0,30.01,SSW,209,0.0,0.0,85,0.00,,,0.00,weatherlink.com 1.10,2013-07-03 05:16:00,
2013-07-03 00:31:00,69.7,65.0,30.02,SSW,209,0.0,0.0,86,0.00,,,0.00,weatherlink.com 1.10,2013-07-03 05:31:00,
2013-07-03 00:46:00,69.7,66.0,30.02,SSW,209,0.0,0.0,87,0.00,,,0.00,weatherlink.com 1.10,2013-07-03 05:46:00,
2013-07-03 01:01:00,69.4,65.0,30.02,SSW,210,0.0,0.0,87,0.00,,,0.00,weatherlink.com 1.10,2013-07-03 06:01:00,
2013-07-03 01:16:00,68.8,65.0,30.01,SSW,209,0.0,0.0,87,0.00,,,0.00,weatherlink.com 1.10,2013-07-03 06:16:00,
2013-07-03 01:31:00,68.3,65.0,30.02,SSW,210,0.0,0.0,88,0.00,,,0.00,weatherlink.com 1.10,2013-07-03 06:31:00,
2013-07-03 01:46:00,68.0,64.0,30.02,SSW,210,0.0,0.0,88,0.00,,,0.00,weatherlink.com 1.10,2013-07-03 06:46:00,
2013-07-03 02:01:00,67.8,64.0,30.02,SSW,210,0.0,0.0,88,0.00,,,0.00,weatherlink.com 1.10,2013-07-03 07:01:00,
2013-07-03 02:31:00,67.3,64.0,30.01,SSW,210,0.0,0.0,89,0.00,,,0.00,weatherlink.com 1.10,2013-07-03 07:31:00,
2013-07-03 03:01:00,66.9,64.0,30.01,SSW,210,0.0,0.0,89,0.00,,,0.00,weatherlink.com 1.10,2013-07-03 08:01:00,
2013-07-03 03:16:00,66.8,64.0,30.01,SSW,210,0.0,0.0,89,0.00,,,0.00,weatherlink.com 1.10,2013-07-03 08:16:00,
2013-07-03 03:31:00,66.7,63.0,30.01,SSW,210,0.0,0.0,89,0.00,,,0.00,weatherlink.com 1.10,2013-07-03 08:31:00,
2013-07-03 03:46:00,66.7,63.0,30.01,SSW,209,0.0,0.0,89,0.00,,,0.00,weatherlink.com 1.10,2013-07-03 08:46:00,
2013-07-03 04:01:00,66.4,63.0,30.01,SSW,210,0.0,0.0,89,0.00,,,0.00,weatherlink.com 1.10,2013-07-03 09:01:00,
2013-07-03 04:17:00,66.2,63.0,30.01,SSW,209,0.0,0.0,89,0.00,,,0.00,weatherlink.com 1.10,2013-07-03 09:17:00,
2013-07-03 04:32:00,65.9,63.0,30.01,SSW,210,0.0,0.0,89,0.00,,,0.00,weatherlink.com 1.10,2013-07-03 09:32:00,
2013-07-03 04:47:00,65.7,62.0,30.01,SSW,210,0.0,0.0,89,0.00,,,0.00,weatherlink.com 1.10,2013-07-03 09:47:00,
2013-07-03 05:02:00,65.4,62.0,30.00,SSW,210,0.0,0.0,89,0.00,,,0.00,weatherlink.com 1.10,2013-07-03 10:02:00,
2013-07-03 05:17:00,65.2,62.0,30.01,SSW,210,0.0,0.0,89,0.00,,,0.00,weatherlink.com 1.10,2013-07-03 10:17:00,
2013-07-03 05:32:00,64.8,62.0,30.01,SSW,210,0.0,0.0,89,0.00,,,0.00,weatherlink.com 1.10,2013-07-03 10:32:00,
2013-07-03 05:47:00,64.6,61.0,30.01,SSW,210,0.0,0.0,88,0.00,,,0.00,weatherlink.com 1.10,2013-07-03 10:47:00,
2013-07-03 06:32:00,64.2,61.0,30.01,SSW,209,0.0,0.0,88,0.00,,,0.00,weatherlink.com 1.10,2013-07-03 11:32:00,
2013-07-03 06:47:00,64.3,61.0,30.01,SSW,209,0.0,0.0,88,0.00,,,0.00,weatherlink.com 1.10,2013-07-03 11:47:00,
2013-07-03 07:02:00,64.4,61.0,30.01,SSW,210,0.0,0.0,88,0.00,,,0.00,weatherlink.com 1.10,2013-07-03 12:02:00,
2013-07-03 07:17:00,64.7,61.0,30.02,SSW,209,0.0,0.0,88,0.00,,,0.00,weatherlink.com 1.10,2013-07-03 12:17:00,
2013-07-03 07:32:00,65.3,62.0,30.03,SSW,210,0.0,0.0,88,0.00,,,0.00,weatherlink.com 1.10,2013-07-03 12:32:00,
2013-07-03 07:47:00,66.0,62.0,30.03,SSW,210,0.0,0.0,88,0.00,,,0.00,weatherlink.com 1.10,2013-07-03 12:47:00,
2013-07-03 08:02:00,67.1,64.0,30.03,SSW,210,0.0,0.0,88,0.00,,,0.00,weatherlink.com 1.10,2013-07-03 13:02:00,
2013-07-03 08:17:00,68.7,65.0,30.04,SSW,210,0.0,0.0,88,0.00,,,0.00,weatherlink.com 1.10,2013-07-03 13:17:00,
2013-07-03 08:32:00,70.2,67.0,30.04,SSW,210,0.0,0.0,88,0.00,,,0.00,weatherlink.com 1.10,2013-07-03 13:32:00,
2013-07-03 08:47:00,72.2,68.0,30.04,SSW,210,0.0,0.0,87,0.00,,,0.00,weatherlink.com 1.10,2013-07-03 13:47:00,
2013-07-03 09:00:00,74.0,68.0,30.05,SSW,209,0.0,0.0,82,0.00,,,0.00,weatherlink.com 1.10,2013-07-03 14:00:00,
2013-07-03 09:30:00,76.5,68.0,30.05,West,269,0.0,0.0,76,0.00,,,0.00,weatherlink.com 1.10,2013-07-03 14:30:00,
2013-07-03 09:45:00,78.2,68.0,30.05,West,276,0.0,0.0,72,0.00,,,0.00,weatherlink.com 1.10,2013-07-03 14:45:00,
2013-07-03 10:00:00,79.9,69.0,30.05,West,276,0.0,0.0,69,0.00,,,0.00,weatherlink.com 1.10,2013-07-03 15:00:00,
2013-07-03 10:15:00,81.9,67.0,30.05,West,270,0.0,0.0,60,0.00,,,0.00,weatherlink.com 1.10,2013-07-03 15:15:00,
2013-07-03 10:45:00,85.5,66.0,30.04,SSW,194,0.0,0.0,52,0.00,,,0.00,weatherlink.com 1.10,2013-07-03 15:45:00,
2013-07-03 11:00:00,87.1,68.0,30.04,WSW,242,0.0,1.0,53,0.00,,,0.00,weatherlink.com 1.10,2013-07-03 16:00:00,
2013-07-03 11:15:00,87.3,66.0,30.04,NNW,332,0.0,1.0,50,0.00,,,0.00,weatherlink.com 1.10,2013-07-03 16:15:00,
2013-07-03 11:31:00,88.1,66.0,30.03,North,355,0.0,1.0,48,0.00,,,0.00,weatherlink.com 1.10,2013-07-03 16:31:00,
2013-07-03 11:46:00,89.4,66.0,30.03,SSW,205,0.0,1.0,46,0.00,,,0.00,weatherlink.com 1.10,2013-07-03 16:46:00,
2013-07-03 12:01:00,88.7,64.0,30.02,SSE,163,0.0,1.0,44,0.00,,,0.00,weatherlink.com 1.10,2013-07-03 17:01:00,
2013-07-03 12:16:00,89.1,63.0,30.02,SSE,163,0.0,1.0,42,0.00,,,0.00,weatherlink.com 1.10,2013-07-03 17:16:00,
2013-07-03 12:31:00,88.8,65.0,30.02,WNW,296,0.0,1.0,45,0.00,,,0.00,weatherlink.com 1.10,2013-07-03 17:31:00,
2013-07-03 12:46:00,90.0,66.0,30.01,West,266,0.0,1.0,45,0.00,,,0.00,weatherlink.com 1.10,2013-07-03 17:46:00,
2013-07-03 14:16:00,88.2,62.0,29.99,North,355,0.0,5.0,42,0.00,,,0.00,weatherlink.com 1.10,2013-07-03 19:16:00,
2013-07-03 14:31:00,91.1,67.0,29.98,SE,141,0.0,4.0,45,0.00,,,0.00,weatherlink.com 1.10,2013-07-03 19:31:00,
2013-07-03 14:46:00,91.0,66.0,29.98,SSE,168,0.0,3.0,43,0.00,,,0.00,weatherlink.com 1.10,2013-07-03 19:46:00,
2013-07-03 15:02:00,90.7,64.0,29.98,South,181,1.0,4.0,41,0.00,,,0.00,weatherlink.com 1.10,2013-07-03 20:02:00,
2013-07-03 15:31:00,91.5,63.0,29.98,South,182,0.0,1.0,39,0.00,,,0.00,weatherlink.com 1.10,2013-07-03 20:31:00,
2013-07-03 15:46:00,89.7,65.0,29.97,West,262,0.0,1.0,44,0.00,,,0.00,weatherlink.com 1.10,2013-07-03 20:46:00,
2013-07-03 16:01:00,87.4,66.0,29.96,West,262,0.0,1.0,49,0.00,,,0.00,weatherlink.com 1.10,2013-07-03 21:01:00,
2013-07-03 16:16:00,85.5,65.0,29.96,West,262,0.0,1.0,51,0.00,,,0.00,weatherlink.com 1.10,2013-07-03 21:16:00,
2013-07-03 16:31:00,86.1,64.0,29.96,NW,307,0.0,1.0,47,0.00,,,0.00,weatherlink.com 1.10,2013-07-03 21:31:00,
2013-07-03 16:46:00,87.0,68.0,29.96,NW,304,0.0,1.0,54,0.00,,,0.00,weatherlink.com 1.10,2013-07-03 21:46:00,
2013-07-03 17:01:00,89.3,63.0,29.95,SSW,211,0.0,3.0,42,0.00,,,0.00,weatherlink.com 1.10,2013-07-03 22:01:00,
2013-07-03 17:16:00,91.0,65.0,29.94,SW,228,0.0,1.0,42,0.00,,,0.00,weatherlink.com 1.10,2013-07-03 22:16:00,
2013-07-03 17:46:00,90.9,67.0,29.93,SE,126,0.0,1.0,46,0.00,,,0.00,weatherlink.com 1.10,2013-07-03 22:46:00,
2013-07-03 18:16:00,89.8,66.0,29.93,South,188,0.0,1.0,46,0.00,,,0.00,weatherlink.com 1.10,2013-07-03 23:16:00,
2013-07-03 18:46:00,88.4,65.0,29.94,SSW,197,0.0,4.0,46,0.00,,,0.00,weatherlink.com 1.10,2013-07-03 23:46:00,
2013-07-03 19:01:00,87.5,66.0,29.94,SSW,193,0.0,1.0,49,0.00,,,0.00,weatherlink.com 1.10,2013-07-04 00:01:00,
2013-07-03 19:46:00,82.9,66.0,29.95,South,180,0.0,3.0,56,0.00,,,0.00,weatherlink.com 1.10,2013-07-04 00:46:00,
2013-07-03 20:01:00,81.4,65.0,29.95,South,180,0.0,1.0,58,0.00,,,0.00,weatherlink.com 1.10,2013-07-04 01:01:00,
2013-07-03 20:31:00,79.0,66.0,29.95,South,180,0.0,0.0,65,0.00,,,0.00,weatherlink.com 1.10,2013-07-04 01:31:00,
2013-07-03 20:46:00,77.5,66.0,29.95,South,180,0.0,0.0,68,0.00,,,0.00,weatherlink.com 1.10,2013-07-04 01:46:00,
2013-07-03 21:01:00,76.4,66.0,29.95,South,180,0.0,0.0,70,0.00,,,0.00,weatherlink.com 1.10,2013-07-04 02:01:00,
2013-07-03 21:16:00,75.7,67.0,29.95,South,180,0.0,0.0,74,0.00,,,0.00,weatherlink.com 1.10,2013-07-04 02:16:00,
2013-07-03 21:31:00,75.0,67.0,29.96,South,180,0.0,0.0,76,0.00,,,0.00,weatherlink.com 1.10,2013-07-04 02:31:00,
2013-07-03 21:46:00,74.4,67.0,29.96,South,180,0.0,0.0,77,0.00,,,0.00,weatherlink.com 1.10,2013-07-04 02:46:00,
2013-07-03 22:01:00,74.0,66.0,29.96,South,180,0.0,0.0,77,0.00,,,0.00,weatherlink.com 1.10,2013-07-04 03:01:00,
2013-07-03 22:31:00,73.5,66.0,29.96,South,180,0.0,0.0,77,0.00,,,0.00,weatherlink.com 1.10,2013-07-04 03:31:00,
2013-07-03 22:46:00,73.5,67.0,29.97,South,180,0.0,0.0,79,0.00,,,0.00,weatherlink.com 1.10,2013-07-04 03:46:00,
2013-07-03 23:01:00,73.4,67.0,29.97,South,180,0.0,0.0,79,0.00,,,0.00,weatherlink.com 1.10,2013-07-04 04:01:00,
2013-07-03 23:16:00,73.4,66.0,29.98,South,188,0.0,0.0,78,0.00,,,0.00,weatherlink.com 1.10,2013-07-04 04:16:00,
2013-07-03 23:31:00,73.2,66.0,29.97,South,188,0.0,0.0,78,0.00,,,0.00,weatherlink.com 1.10,2013-07-04 04:31:00,
2013-07-03 23:46:00,72.9,66.0,29.98,South,188,0.0,0.0,80,0.00,,,0.00,weatherlink.com 1.10,2013-07-04 04:46:00,